sensor_id;sensor_type;location;lat;lon;timestamp;temperature;humidity
76203;DHT22;64985;46.364;17.008;2023-09-19T00:00:14;20.70;96.80
76203;DHT22;64985;46.364;17.008;2023-09-19T00:03:17;20.70;98.90
76203;DHT22;64985;46.364;17.008;2023-09-19T00:06:19;20.40;99.90
76203;DHT22;64985;46.364;17.008;2023-09-19T00:09:22;20.20;99.90
76203;DHT22;64985;46.364;17.008;2023-09-19T00:12:26;19.90;99.90
76203;DHT22;64985;46.364;17.008;2023-09-19T00:15:29;19.80;99.90
76203;DHT22;64985;46.364;17.008;2023-09-19T00:18:31;19.60;99.90
76203;DHT22;64985;46.364;17.008;2023-09-19T00:21:34;19.40;99.90
76203;DHT22;64985;46.364;17.008;2023-09-19T00:24:39;19.20;99.90
76203;DHT22;64985;46.364;17.008;2023-09-19T00:27:42;19.00;99.90
76203;DHT22;64985;46.364;17.008;2023-09-19T00:30:47;18.90;99.90
76203;DHT22;64985;46.364;17.008;2023-09-19T00:33:52;18.70;99.90
76203;DHT22;64985;46.364;17.008;2023-09-19T00:36:55;18.60;99.90
76203;DHT22;64985;46.364;17.008;2023-09-19T00:39:57;18.70;99.90
76203;DHT22;64985;46.364;17.008;2023-09-19T00:42:59;18.60;99.90
76203;DHT22;64985;46.364;17.008;2023-09-19T00:46:02;18.50;99.90
76203;DHT22;64985;46.364;17.008;2023-09-19T00:49:07;18.60;99.90
76203;DHT22;64985;46.364;17.008;2023-09-19T00:52:12;18.80;99.90
76203;DHT22;64985;46.364;17.008;2023-09-19T00:55:15;19.10;99.90
76203;DHT22;64985;46.364;17.008;2023-09-19T00:58:18;19.20;99.90
76203;DHT22;64985;46.364;17.008;2023-09-19T01:01:21;19.30;99.90
76203;DHT22;64985;46.364;17.008;2023-09-19T01:04:24;19.20;99.90
76203;DHT22;64985;46.364;17.008;2023-09-19T01:07:27;19.20;99.90
76203;DHT22;64985;46.364;17.008;2023-09-19T01:10:33;19.20;99.90
76203;DHT22;64985;46.364;17.008;2023-09-19T01:16:53;18.90;99.90
76203;DHT22;64985;46.364;17.008;2023-09-19T01:23:29;18.80;99.90
76203;DHT22;64985;46.364;17.008;2023-09-19T01:30:17;18.80;99.90
76203;DHT22;64985;46.364;17.008;2023-09-19T01:33:19;18.70;99.90
76203;DHT22;64985;46.364;17.008;2023-09-19T01:36:22;18.70;99.90
76203;DHT22;64985;46.364;17.008;2023-09-19T01:39:25;18.60;99.90
76203;DHT22;64985;46.364;17.008;2023-09-19T01:48:46;19.10;99.90
76203;DHT22;64985;46.364;17.008;2023-09-19T01:52:13;19.20;99.90
76203;DHT22;64985;46.364;17.008;2023-09-19T01:55:19;19.30;99.90
76203;DHT22;64985;46.364;17.008;2023-09-19T01:58:32;19.40;99.90
76203;DHT22;64985;46.364;17.008;2023-09-19T02:01:37;19.60;99.90
76203;DHT22;64985;46.364;17.008;2023-09-19T02:04:40;19.90;99.90
76203;DHT22;64985;46.364;17.008;2023-09-19T02:07:43;20.00;99.90
76203;DHT22;64985;46.364;17.008;2023-09-19T02:10:45;20.00;99.90
76203;DHT22;64985;46.364;17.008;2023-09-19T02:13:51;20.20;99.90
76203;DHT22;64985;46.364;17.008;2023-09-19T02:16:57;20.40;99.90
76203;DHT22;64985;46.364;17.008;2023-09-19T02:19:59;20.50;99.90
76203;DHT22;64985;46.364;17.008;2023-09-19T02:23:03;20.40;99.90
76203;DHT22;64985;46.364;17.008;2023-09-19T02:26:05;20.40;99.90
76203;DHT22;64985;46.364;17.008;2023-09-19T02:29:07;20.30;99.90
76203;DHT22;64985;46.364;17.008;2023-09-19T02:32:10;20.20;99.90
76203;DHT22;64985;46.364;17.008;2023-09-19T02:35:12;20.20;99.90
76203;DHT22;64985;46.364;17.008;2023-09-19T02:38:16;20.30;99.90
76203;DHT22;64985;46.364;17.008;2023-09-19T02:41:23;20.30;99.90
76203;DHT22;64985;46.364;17.008;2023-09-19T02:44:25;20.40;99.80
76203;DHT22;64985;46.364;17.008;2023-09-19T02:47:28;20.40;99.90
76203;DHT22;64985;46.364;17.008;2023-09-19T02:50:31;20.40;99.90
76203;DHT22;64985;46.364;17.008;2023-09-19T02:53:33;20.40;99.90
76203;DHT22;64985;46.364;17.008;2023-09-19T02:56:36;20.30;99.90
76203;DHT22;64985;46.364;17.008;2023-09-19T02:59:39;20.40;99.90
76203;DHT22;64985;46.364;17.008;2023-09-19T03:02:42;20.30;99.60
76203;DHT22;64985;46.364;17.008;2023-09-19T03:05:46;20.30;99.90
76203;DHT22;64985;46.364;17.008;2023-09-19T03:08:50;20.30;99.90
76203;DHT22;64985;46.364;17.008;2023-09-19T03:11:53;20.30;99.90
76203;DHT22;64985;46.364;17.008;2023-09-19T03:14:56;20.30;99.90
76203;DHT22;64985;46.364;17.008;2023-09-19T03:17:59;20.30;99.90
76203;DHT22;64985;46.364;17.008;2023-09-19T03:21:02;20.40;99.70
76203;DHT22;64985;46.364;17.008;2023-09-19T03:24:04;20.40;99.00
76203;DHT22;64985;46.364;17.008;2023-09-19T03:27:09;20.40;99.90
76203;DHT22;64985;46.364;17.008;2023-09-19T03:30:12;20.40;99.90
76203;DHT22;64985;46.364;17.008;2023-09-19T03:33:15;20.40;99.10
76203;DHT22;64985;46.364;17.008;2023-09-19T03:36:18;20.40;99.10
76203;DHT22;64985;46.364;17.008;2023-09-19T03:39:20;20.40;99.90
76203;DHT22;64985;46.364;17.008;2023-09-19T03:42:23;20.20;99.90
76203;DHT22;64985;46.364;17.008;2023-09-19T03:45:27;20.10;99.90
76203;DHT22;64985;46.364;17.008;2023-09-19T03:48:30;20.00;99.90
76203;DHT22;64985;46.364;17.008;2023-09-19T03:51:33;20.10;99.90
76203;DHT22;64985;46.364;17.008;2023-09-19T03:54:36;20.10;99.90
76203;DHT22;64985;46.364;17.008;2023-09-19T03:57:39;20.00;99.90
76203;DHT22;64985;46.364;17.008;2023-09-19T04:00:41;20.00;99.90
76203;DHT22;64985;46.364;17.008;2023-09-19T04:03:46;20.00;99.90
76203;DHT22;64985;46.364;17.008;2023-09-19T04:06:53;20.00;99.90
76203;DHT22;64985;46.364;17.008;2023-09-19T04:09:55;20.00;99.90
76203;DHT22;64985;46.364;17.008;2023-09-19T04:12:57;20.00;99.90
76203;DHT22;64985;46.364;17.008;2023-09-19T04:16:00;20.10;99.90
76203;DHT22;64985;46.364;17.008;2023-09-19T04:19:03;20.10;99.90
76203;DHT22;64985;46.364;17.008;2023-09-19T04:22:05;20.10;99.90
76203;DHT22;64985;46.364;17.008;2023-09-19T04:25:08;20.00;99.90
76203;DHT22;64985;46.364;17.008;2023-09-19T04:28:10;20.00;99.90
76203;DHT22;64985;46.364;17.008;2023-09-19T04:31:13;20.00;99.90
76203;DHT22;64985;46.364;17.008;2023-09-19T04:34:16;19.90;99.90
76203;DHT22;64985;46.364;17.008;2023-09-19T04:37:19;19.80;99.90
76203;DHT22;64985;46.364;17.008;2023-09-19T04:40:21;19.60;99.90
76203;DHT22;64985;46.364;17.008;2023-09-19T04:43:25;19.50;99.90
76203;DHT22;64985;46.364;17.008;2023-09-19T04:46:27;19.50;99.90
76203;DHT22;64985;46.364;17.008;2023-09-19T04:49:30;19.40;99.90
76203;DHT22;64985;46.364;17.008;2023-09-19T04:52:32;19.50;99.90
76203;DHT22;64985;46.364;17.008;2023-09-19T04:55:35;19.40;99.90
76203;DHT22;64985;46.364;17.008;2023-09-19T04:58:38;19.30;99.90
76203;DHT22;64985;46.364;17.008;2023-09-19T05:01:40;19.20;99.90
76203;DHT22;64985;46.364;17.008;2023-09-19T05:04:42;19.10;99.90
76203;DHT22;64985;46.364;17.008;2023-09-19T05:07:46;19.10;99.90
76203;DHT22;64985;46.364;17.008;2023-09-19T05:10:49;19.10;99.90
76203;DHT22;64985;46.364;17.008;2023-09-19T05:13:51;19.10;99.90
76203;DHT22;64985;46.364;17.008;2023-09-19T05:16:55;19.10;99.90
76203;DHT22;64985;46.364;17.008;2023-09-19T05:19:57;19.00;99.90
76203;DHT22;64985;46.364;17.008;2023-09-19T05:23:01;19.00;99.90
76203;DHT22;64985;46.364;17.008;2023-09-19T05:26:04;18.90;99.90
76203;DHT22;64985;46.364;17.008;2023-09-19T05:29:07;18.90;99.90
76203;DHT22;64985;46.364;17.008;2023-09-19T05:32:11;18.80;99.90
76203;DHT22;64985;46.364;17.008;2023-09-19T05:35:14;18.70;99.90
76203;DHT22;64985;46.364;17.008;2023-09-19T05:38:16;18.60;99.90
76203;DHT22;64985;46.364;17.008;2023-09-19T05:41:21;18.50;99.90
76203;DHT22;64985;46.364;17.008;2023-09-19T05:44:23;18.30;99.90
76203;DHT22;64985;46.364;17.008;2023-09-19T05:47:26;18.30;99.90
76203;DHT22;64985;46.364;17.008;2023-09-19T05:50:28;18.20;99.90
76203;DHT22;64985;46.364;17.008;2023-09-19T05:53:30;18.10;99.90
76203;DHT22;64985;46.364;17.008;2023-09-19T05:56:32;18.00;99.90
76203;DHT22;64985;46.364;17.008;2023-09-19T05:59:35;17.90;99.90
76203;DHT22;64985;46.364;17.008;2023-09-19T06:02:37;17.90;99.90
76203;DHT22;64985;46.364;17.008;2023-09-19T06:05:40;17.70;99.90
76203;DHT22;64985;46.364;17.008;2023-09-19T06:08:43;17.60;99.90
76203;DHT22;64985;46.364;17.008;2023-09-19T06:11:46;17.60;99.90
76203;DHT22;64985;46.364;17.008;2023-09-19T06:14:49;17.50;99.90
76203;DHT22;64985;46.364;17.008;2023-09-19T06:17:55;17.40;99.90
76203;DHT22;64985;46.364;17.008;2023-09-19T06:20:58;17.20;99.90
76203;DHT22;64985;46.364;17.008;2023-09-19T06:24:00;17.10;99.90
76203;DHT22;64985;46.364;17.008;2023-09-19T06:27:02;17.00;99.90
76203;DHT22;64985;46.364;17.008;2023-09-19T06:30:06;16.90;99.90
76203;DHT22;64985;46.364;17.008;2023-09-19T06:33:09;16.90;99.90
76203;DHT22;64985;46.364;17.008;2023-09-19T06:36:17;16.80;99.90
76203;DHT22;64985;46.364;17.008;2023-09-19T06:39:21;16.80;99.90
76203;DHT22;64985;46.364;17.008;2023-09-19T06:42:24;16.70;99.90
76203;DHT22;64985;46.364;17.008;2023-09-19T06:45:28;16.70;99.90
76203;DHT22;64985;46.364;17.008;2023-09-19T06:48:30;16.60;99.90
76203;DHT22;64985;46.364;17.008;2023-09-19T06:51:34;16.60;99.90
76203;DHT22;64985;46.364;17.008;2023-09-19T06:54:36;16.70;99.90
76203;DHT22;64985;46.364;17.008;2023-09-19T06:57:39;16.80;99.90
76203;DHT22;64985;46.364;17.008;2023-09-19T07:00:47;16.90;99.90
76203;DHT22;64985;46.364;17.008;2023-09-19T07:03:51;17.00;99.90
76203;DHT22;64985;46.364;17.008;2023-09-19T07:06:55;17.10;99.90
76203;DHT22;64985;46.364;17.008;2023-09-19T07:09:57;17.10;99.90
76203;DHT22;64985;46.364;17.008;2023-09-19T07:13:01;17.20;99.90
76203;DHT22;64985;46.364;17.008;2023-09-19T07:16:04;17.30;99.90
76203;DHT22;64985;46.364;17.008;2023-09-19T07:19:07;17.30;99.90
76203;DHT22;64985;46.364;17.008;2023-09-19T07:22:09;17.30;99.90
76203;DHT22;64985;46.364;17.008;2023-09-19T07:25:11;17.20;99.90
76203;DHT22;64985;46.364;17.008;2023-09-19T07:28:16;17.10;99.90
76203;DHT22;64985;46.364;17.008;2023-09-19T07:31:18;17.10;99.90
76203;DHT22;64985;46.364;17.008;2023-09-19T07:34:20;17.20;99.90
76203;DHT22;64985;46.364;17.008;2023-09-19T07:37:25;17.20;99.90
76203;DHT22;64985;46.364;17.008;2023-09-19T07:40:28;17.20;99.90
76203;DHT22;64985;46.364;17.008;2023-09-19T07:43:31;17.20;99.90
76203;DHT22;64985;46.364;17.008;2023-09-19T07:46:33;17.30;99.90
76203;DHT22;64985;46.364;17.008;2023-09-19T07:49:36;17.40;99.90
76203;DHT22;64985;46.364;17.008;2023-09-19T07:52:38;17.50;99.90
76203;DHT22;64985;46.364;17.008;2023-09-19T07:55:41;17.70;99.90
76203;DHT22;64985;46.364;17.008;2023-09-19T07:58:44;18.00;99.90
76203;DHT22;64985;46.364;17.008;2023-09-19T08:01:47;18.20;99.90
76203;DHT22;64985;46.364;17.008;2023-09-19T08:04:49;18.40;99.90
76203;DHT22;64985;46.364;17.008;2023-09-19T08:07:54;18.50;99.90
76203;DHT22;64985;46.364;17.008;2023-09-19T08:10:58;18.50;99.90
76203;DHT22;64985;46.364;17.008;2023-09-19T08:14:01;18.30;99.90
76203;DHT22;64985;46.364;17.008;2023-09-19T08:17:03;18.30;99.90
76203;DHT22;64985;46.364;17.008;2023-09-19T08:20:10;18.40;99.90
76203;DHT22;64985;46.364;17.008;2023-09-19T08:23:21;18.60;99.90
76203;DHT22;64985;46.364;17.008;2023-09-19T08:26:23;18.60;99.90
76203;DHT22;64985;46.364;17.008;2023-09-19T08:29:26;18.80;99.90
76203;DHT22;64985;46.364;17.008;2023-09-19T08:32:30;19.10;99.90
76203;DHT22;64985;46.364;17.008;2023-09-19T08:35:32;19.20;99.90
76203;DHT22;64985;46.364;17.008;2023-09-19T08:38:35;19.20;99.90
76203;DHT22;64985;46.364;17.008;2023-09-19T08:41:37;19.30;99.90
76203;DHT22;64985;46.364;17.008;2023-09-19T08:44:40;19.40;99.90
76203;DHT22;64985;46.364;17.008;2023-09-19T08:51:29;19.80;99.90
76203;DHT22;64985;46.364;17.008;2023-09-19T08:54:37;19.50;99.90
76203;DHT22;64985;46.364;17.008;2023-09-19T08:57:43;19.50;99.90
76203;DHT22;64985;46.364;17.008;2023-09-19T09:00:48;19.50;99.90
76203;DHT22;64985;46.364;17.008;2023-09-19T09:03:56;19.50;99.90
76203;DHT22;64985;46.364;17.008;2023-09-19T09:06:59;19.60;99.90
76203;DHT22;64985;46.364;17.008;2023-09-19T09:10:03;19.60;99.90
76203;DHT22;64985;46.364;17.008;2023-09-19T09:13:06;19.70;99.90
76203;DHT22;64985;46.364;17.008;2023-09-19T09:16:08;19.60;99.90
76203;DHT22;64985;46.364;17.008;2023-09-19T09:19:11;19.60;99.90
76203;DHT22;64985;46.364;17.008;2023-09-19T09:22:15;19.50;99.90
76203;DHT22;64985;46.364;17.008;2023-09-19T09:25:20;19.40;99.90
76203;DHT22;64985;46.364;17.008;2023-09-19T09:28:27;19.40;99.90
76203;DHT22;64985;46.364;17.008;2023-09-19T09:31:30;19.60;99.90
76203;DHT22;64985;46.364;17.008;2023-09-19T09:34:33;19.90;99.90
76203;DHT22;64985;46.364;17.008;2023-09-19T09:37:35;20.00;99.90
76203;DHT22;64985;46.364;17.008;2023-09-19T09:40:48;20.40;99.90
76203;DHT22;64985;46.364;17.008;2023-09-19T09:43:56;20.90;99.90
76203;DHT22;64985;46.364;17.008;2023-09-19T09:47:01;21.00;99.90
76203;DHT22;64985;46.364;17.008;2023-09-19T09:50:36;20.90;99.90
76203;DHT22;64985;46.364;17.008;2023-09-19T09:53:47;20.70;99.90
76203;DHT22;64985;46.364;17.008;2023-09-19T09:56:57;20.60;99.90
76203;DHT22;64985;46.364;17.008;2023-09-19T10:00:03;20.60;99.90
76203;DHT22;64985;46.364;17.008;2023-09-19T10:03:34;21.30;99.90
76203;DHT22;64985;46.364;17.008;2023-09-19T10:06:41;22.20;99.90
76203;DHT22;64985;46.364;17.008;2023-09-19T10:09:49;22.80;98.60
76203;DHT22;64985;46.364;17.008;2023-09-19T10:12:55;23.20;93.30
76203;DHT22;64985;46.364;17.008;2023-09-19T10:16:07;23.60;94.50
76203;DHT22;64985;46.364;17.008;2023-09-19T10:19:21;24.70;86.10
76203;DHT22;64985;46.364;17.008;2023-09-19T10:22:28;25.10;90.10
76203;DHT22;64985;46.364;17.008;2023-09-19T10:25:33;24.90;84.80
76203;DHT22;64985;46.364;17.008;2023-09-19T10:28:39;25.00;78.90
76203;DHT22;64985;46.364;17.008;2023-09-19T10:31:42;25.20;76.50
76203;DHT22;64985;46.364;17.008;2023-09-19T10:34:50;25.50;79.80
76203;DHT22;64985;46.364;17.008;2023-09-19T10:37:54;26.40;74.90
76203;DHT22;64985;46.364;17.008;2023-09-19T10:41:00;26.00;73.30
76203;DHT22;64985;46.364;17.008;2023-09-19T10:44:04;25.10;76.90
76203;DHT22;64985;46.364;17.008;2023-09-19T10:47:11;24.20;78.30
76203;DHT22;64985;46.364;17.008;2023-09-19T10:50:22;23.90;82.20
76203;DHT22;64985;46.364;17.008;2023-09-19T10:53:24;24.60;81.70
76203;DHT22;64985;46.364;17.008;2023-09-19T10:56:27;25.60;75.10
76203;DHT22;64985;46.364;17.008;2023-09-19T10:59:34;25.50;75.70
76203;DHT22;64985;46.364;17.008;2023-09-19T11:02:37;25.60;77.70
76203;DHT22;64985;46.364;17.008;2023-09-19T11:05:40;25.90;75.50
76203;DHT22;64985;46.364;17.008;2023-09-19T11:08:56;25.50;75.50
76203;DHT22;64985;46.364;17.008;2023-09-19T11:11:59;25.50;74.00
76203;DHT22;64985;46.364;17.008;2023-09-19T11:15:03;25.10;79.70
76203;DHT22;64985;46.364;17.008;2023-09-19T11:21:52;25.40;76.10
76203;DHT22;64985;46.364;17.008;2023-09-19T11:28:41;26.30;71.60
76203;DHT22;64985;46.364;17.008;2023-09-19T11:31:44;26.20;73.90
76203;DHT22;64985;46.364;17.008;2023-09-19T11:34:47;25.90;71.20
76203;DHT22;64985;46.364;17.008;2023-09-19T11:41:36;25.70;74.50
76203;DHT22;64985;46.364;17.008;2023-09-19T11:44:39;26.30;71.00
76203;DHT22;64985;46.364;17.008;2023-09-19T11:47:45;27.30;69.20
76203;DHT22;64985;46.364;17.008;2023-09-19T11:50:49;27.70;72.70
76203;DHT22;64985;46.364;17.008;2023-09-19T11:53:57;28.20;69.10
76203;DHT22;64985;46.364;17.008;2023-09-19T11:57:03;28.40;68.20
76203;DHT22;64985;46.364;17.008;2023-09-19T12:00:07;28.10;66.20
76203;DHT22;64985;46.364;17.008;2023-09-19T12:03:12;27.20;65.70
76203;DHT22;64985;46.364;17.008;2023-09-19T12:06:17;27.50;62.40
76203;DHT22;64985;46.364;17.008;2023-09-19T12:09:20;28.30;64.80
76203;DHT22;64985;46.364;17.008;2023-09-19T12:12:24;28.30;66.90
76203;DHT22;64985;46.364;17.008;2023-09-19T12:15:29;28.50;67.00
76203;DHT22;64985;46.364;17.008;2023-09-19T12:18:37;29.10;62.30
76203;DHT22;64985;46.364;17.008;2023-09-19T12:21:39;28.60;62.80
76203;DHT22;64985;46.364;17.008;2023-09-19T12:24:42;28.50;62.60
76203;DHT22;64985;46.364;17.008;2023-09-19T12:27:48;28.50;62.40
76203;DHT22;64985;46.364;17.008;2023-09-19T12:30:52;28.20;64.20
76203;DHT22;64985;46.364;17.008;2023-09-19T12:33:57;27.90;63.40
76203;DHT22;64985;46.364;17.008;2023-09-19T12:40:30;27.80;62.20
76203;DHT22;64985;46.364;17.008;2023-09-19T12:43:35;27.80;64.30
76203;DHT22;64985;46.364;17.008;2023-09-19T12:46:39;28.50;63.90
76203;DHT22;64985;46.364;17.008;2023-09-19T12:53:26;29.50;59.60
76203;DHT22;64985;46.364;17.008;2023-09-19T12:56:40;29.40;60.60
76203;DHT22;64985;46.364;17.008;2023-09-19T12:59:52;28.50;57.90
76203;DHT22;64985;46.364;17.008;2023-09-19T13:03:18;28.80;58.40
76203;DHT22;64985;46.364;17.008;2023-09-19T13:06:36;28.70;58.20
76203;DHT22;64985;46.364;17.008;2023-09-19T13:10:02;29.40;56.20
76203;DHT22;64985;46.364;17.008;2023-09-19T13:13:22;29.50;56.70
76203;DHT22;64985;46.364;17.008;2023-09-19T13:16:29;29.80;57.40
76203;DHT22;64985;46.364;17.008;2023-09-19T13:22:45;29.70;57.10
76203;DHT22;64985;46.364;17.008;2023-09-19T13:25:53;29.60;56.20
76203;DHT22;64985;46.364;17.008;2023-09-19T13:28:55;29.50;55.40
76203;DHT22;64985;46.364;17.008;2023-09-19T13:31:58;29.20;56.70
76203;DHT22;64985;46.364;17.008;2023-09-19T13:35:01;29.20;58.80
76203;DHT22;64985;46.364;17.008;2023-09-19T13:38:04;28.90;57.50
76203;DHT22;64985;46.364;17.008;2023-09-19T13:41:06;29.10;56.60
76203;DHT22;64985;46.364;17.008;2023-09-19T13:44:09;29.30;56.60
76203;DHT22;64985;46.364;17.008;2023-09-19T13:47:14;29.60;53.90
76203;DHT22;64985;46.364;17.008;2023-09-19T13:50:18;29.60;55.60
76203;DHT22;64985;46.364;17.008;2023-09-19T13:53:26;29.30;57.70
76203;DHT22;64985;46.364;17.008;2023-09-19T13:56:28;28.80;58.50
76203;DHT22;64985;46.364;17.008;2023-09-19T13:59:30;29.30;57.80
76203;DHT22;64985;46.364;17.008;2023-09-19T14:02:33;29.70;57.50
76203;DHT22;64985;46.364;17.008;2023-09-19T14:05:35;29.40;58.10
76203;DHT22;64985;46.364;17.008;2023-09-19T14:08:38;29.40;56.50
76203;DHT22;64985;46.364;17.008;2023-09-19T14:11:41;30.20;57.70
76203;DHT22;64985;46.364;17.008;2023-09-19T14:14:44;30.60;55.10
76203;DHT22;64985;46.364;17.008;2023-09-19T14:17:47;30.80;53.60
76203;DHT22;64985;46.364;17.008;2023-09-19T14:20:49;30.20;57.10
76203;DHT22;64985;46.364;17.008;2023-09-19T14:23:55;30.10;55.60
76203;DHT22;64985;46.364;17.008;2023-09-19T14:26:57;29.70;54.30
76203;DHT22;64985;46.364;17.008;2023-09-19T14:30:01;29.70;58.00
76203;DHT22;64985;46.364;17.008;2023-09-19T14:33:04;30.20;55.40
76203;DHT22;64985;46.364;17.008;2023-09-19T14:36:08;30.20;53.70
76203;DHT22;64985;46.364;17.008;2023-09-19T14:39:12;29.90;53.20
76203;DHT22;64985;46.364;17.008;2023-09-19T14:42:14;29.90;54.60
76203;DHT22;64985;46.364;17.008;2023-09-19T14:45:20;29.80;51.40
76203;DHT22;64985;46.364;17.008;2023-09-19T14:48:22;30.40;50.00
76203;DHT22;64985;46.364;17.008;2023-09-19T14:51:29;30.70;48.80
76203;DHT22;64985;46.364;17.008;2023-09-19T14:54:32;30.50;48.70
76203;DHT22;64985;46.364;17.008;2023-09-19T14:57:35;30.90;50.50
76203;DHT22;64985;46.364;17.008;2023-09-19T15:00:42;30.90;51.70
76203;DHT22;64985;46.364;17.008;2023-09-19T15:03:47;31.10;52.20
76203;DHT22;64985;46.364;17.008;2023-09-19T15:06:52;30.90;49.10
76203;DHT22;64985;46.364;17.008;2023-09-19T15:09:57;30.80;49.00
76203;DHT22;64985;46.364;17.008;2023-09-19T15:13:00;30.60;49.70
76203;DHT22;64985;46.364;17.008;2023-09-19T15:16:06;30.80;51.80
76203;DHT22;64985;46.364;17.008;2023-09-19T15:19:11;30.80;49.80
76203;DHT22;64985;46.364;17.008;2023-09-19T15:22:14;31.70;48.20
76203;DHT22;64985;46.364;17.008;2023-09-19T15:25:16;31.40;49.50
76203;DHT22;64985;46.364;17.008;2023-09-19T15:28:19;31.00;49.10
76203;DHT22;64985;46.364;17.008;2023-09-19T15:31:25;30.70;51.50
76203;DHT22;64985;46.364;17.008;2023-09-19T15:34:29;30.40;49.50
76203;DHT22;64985;46.364;17.008;2023-09-19T15:37:32;30.50;50.60
76203;DHT22;64985;46.364;17.008;2023-09-19T15:40:34;30.40;53.20
76203;DHT22;64985;46.364;17.008;2023-09-19T15:43:37;29.70;57.80
76203;DHT22;64985;46.364;17.008;2023-09-19T15:46:41;28.70;60.60
76203;DHT22;64985;46.364;17.008;2023-09-19T15:49:44;27.80;62.50
76203;DHT22;64985;46.364;17.008;2023-09-19T15:52:53;26.70;68.20
76203;DHT22;64985;46.364;17.008;2023-09-19T15:56:05;26.20;69.50
76203;DHT22;64985;46.364;17.008;2023-09-19T15:59:08;25.90;75.30
76203;DHT22;64985;46.364;17.008;2023-09-19T16:02:12;25.60;78.30
76203;DHT22;64985;46.364;17.008;2023-09-19T16:05:15;25.00;80.20
76203;DHT22;64985;46.364;17.008;2023-09-19T16:08:17;24.80;87.00
76203;DHT22;64985;46.364;17.008;2023-09-19T16:11:20;24.70;89.70
76203;DHT22;64985;46.364;17.008;2023-09-19T16:14:24;24.90;88.20
76203;DHT22;64985;46.364;17.008;2023-09-19T16:17:26;25.00;87.80
76203;DHT22;64985;46.364;17.008;2023-09-19T16:20:30;24.70;88.00
76203;DHT22;64985;46.364;17.008;2023-09-19T16:23:35;23.90;89.20
76203;DHT22;64985;46.364;17.008;2023-09-19T16:26:38;22.90;92.60
76203;DHT22;64985;46.364;17.008;2023-09-19T16:29:41;22.20;97.00
76203;DHT22;64985;46.364;17.008;2023-09-19T16:32:43;21.80;99.90
76203;DHT22;64985;46.364;17.008;2023-09-19T16:35:46;21.50;99.90
76203;DHT22;64985;46.364;17.008;2023-09-19T16:38:49;21.00;99.90
76203;DHT22;64985;46.364;17.008;2023-09-19T16:41:53;20.60;99.90
76203;DHT22;64985;46.364;17.008;2023-09-19T16:44:55;20.30;99.90
76203;DHT22;64985;46.364;17.008;2023-09-19T16:47:58;20.20;99.90
76203;DHT22;64985;46.364;17.008;2023-09-19T16:51:05;20.20;99.90
76203;DHT22;64985;46.364;17.008;2023-09-19T16:54:10;19.90;99.90
76203;DHT22;64985;46.364;17.008;2023-09-19T16:57:13;19.60;99.90
76203;DHT22;64985;46.364;17.008;2023-09-19T17:00:17;19.40;99.90
76203;DHT22;64985;46.364;17.008;2023-09-19T17:03:22;19.20;99.90
76203;DHT22;64985;46.364;17.008;2023-09-19T17:06:27;19.00;99.90
76203;DHT22;64985;46.364;17.008;2023-09-19T17:09:31;18.90;99.90
76203;DHT22;64985;46.364;17.008;2023-09-19T17:12:34;19.00;99.90
76203;DHT22;64985;46.364;17.008;2023-09-19T17:15:38;19.10;99.90
76203;DHT22;64985;46.364;17.008;2023-09-19T17:18:41;19.00;99.90
76203;DHT22;64985;46.364;17.008;2023-09-19T17:21:46;18.80;99.90
76203;DHT22;64985;46.364;17.008;2023-09-19T17:24:49;18.70;99.90
76203;DHT22;64985;46.364;17.008;2023-09-19T17:27:52;18.60;99.90
76203;DHT22;64985;46.364;17.008;2023-09-19T17:30:57;18.60;99.90
76203;DHT22;64985;46.364;17.008;2023-09-19T17:34:03;18.60;99.90
76203;DHT22;64985;46.364;17.008;2023-09-19T17:37:07;18.70;99.90
76203;DHT22;64985;46.364;17.008;2023-09-19T17:40:12;18.50;99.90
76203;DHT22;64985;46.364;17.008;2023-09-19T17:43:17;18.30;99.90
76203;DHT22;64985;46.364;17.008;2023-09-19T17:46:22;18.30;99.90
76203;DHT22;64985;46.364;17.008;2023-09-19T17:49:30;18.30;99.90
76203;DHT22;64985;46.364;17.008;2023-09-19T17:52:34;18.30;99.90
76203;DHT22;64985;46.364;17.008;2023-09-19T17:55:40;18.30;99.90
76203;DHT22;64985;46.364;17.008;2023-09-19T17:58:47;18.30;99.90
76203;DHT22;64985;46.364;17.008;2023-09-19T18:02:09;18.20;99.90
76203;DHT22;64985;46.364;17.008;2023-09-19T18:05:17;18.00;99.90
76203;DHT22;64985;46.364;17.008;2023-09-19T18:08:24;17.90;99.90
76203;DHT22;64985;46.364;17.008;2023-09-19T18:11:35;17.70;99.90
76203;DHT22;64985;46.364;17.008;2023-09-19T18:14:46;17.60;99.90
76203;DHT22;64985;46.364;17.008;2023-09-19T18:17:51;17.50;99.90
76203;DHT22;64985;46.364;17.008;2023-09-19T18:21:00;17.30;99.90
76203;DHT22;64985;46.364;17.008;2023-09-19T18:24:08;17.30;99.90
76203;DHT22;64985;46.364;17.008;2023-09-19T18:27:15;17.40;99.90
76203;DHT22;64985;46.364;17.008;2023-09-19T18:30:18;17.30;99.90
76203;DHT22;64985;46.364;17.008;2023-09-19T18:33:21;17.20;99.90
76203;DHT22;64985;46.364;17.008;2023-09-19T18:36:25;17.30;99.90
76203;DHT22;64985;46.364;17.008;2023-09-19T18:39:32;17.30;99.90
76203;DHT22;64985;46.364;17.008;2023-09-19T18:42:36;17.20;99.90
76203;DHT22;64985;46.364;17.008;2023-09-19T18:45:41;17.20;99.90
76203;DHT22;64985;46.364;17.008;2023-09-19T18:48:45;17.20;99.90
76203;DHT22;64985;46.364;17.008;2023-09-19T18:51:50;17.00;99.90
76203;DHT22;64985;46.364;17.008;2023-09-19T18:54:53;16.90;99.90
76203;DHT22;64985;46.364;17.008;2023-09-19T18:57:57;16.70;99.90
76203;DHT22;64985;46.364;17.008;2023-09-19T19:01:04;16.50;99.90
76203;DHT22;64985;46.364;17.008;2023-09-19T19:04:08;16.40;99.90
76203;DHT22;64985;46.364;17.008;2023-09-19T19:07:12;16.30;99.90
76203;DHT22;64985;46.364;17.008;2023-09-19T19:10:18;16.30;99.90
76203;DHT22;64985;46.364;17.008;2023-09-19T19:13:22;16.40;99.90
76203;DHT22;64985;46.364;17.008;2023-09-19T19:16:25;16.40;99.90
76203;DHT22;64985;46.364;17.008;2023-09-19T19:19:29;16.40;99.90
76203;DHT22;64985;46.364;17.008;2023-09-19T19:22:34;16.30;99.90
76203;DHT22;64985;46.364;17.008;2023-09-19T19:25:46;16.10;99.90
76203;DHT22;64985;46.364;17.008;2023-09-19T19:28:50;16.10;99.90
76203;DHT22;64985;46.364;17.008;2023-09-19T19:31:55;16.00;99.90
76203;DHT22;64985;46.364;17.008;2023-09-19T19:34:58;16.00;99.90
76203;DHT22;64985;46.364;17.008;2023-09-19T19:38:02;15.90;99.90
76203;DHT22;64985;46.364;17.008;2023-09-19T19:41:06;15.80;99.90
76203;DHT22;64985;46.364;17.008;2023-09-19T19:44:10;15.70;99.90
76203;DHT22;64985;46.364;17.008;2023-09-19T19:47:14;15.80;99.90